Streeter, Texas
Current Conditions -  °F | °C
As of 7:55 AM on Friday 24 Oct 2014 (Local Time) from KBBD Reporting Station
Clear Clear  
Wind Chill: 57°   Ceiling: Unl
Heat Index: 57°   Visibility: 9mi
Dew Point: 57°   Wind: 3mph
Humidity: 100%   Direction: 180°S
Pressure: 30.15"   Gusts: NA
Location:  30.7049°N, 99.2387°W
Report Text: KBBD 241255Z AUTO 18003KT 9SM CLR 14/14 A3015 RMK
Loading
Personal Weather Stations






























Interactive Weather Map
Tropical Storm Tracking
New forecast layout! Learn more

10-Day Weather Forecast

Advertisements
Track Severe Weather on mobile